Time;durP1;ratioP1;P1;durP2;ratioP2;P2;SDS_P1;SDS_P2;PMS_P1;PMS_P2;Temp;Humidity;BMP_temperature;BMP_pressure;BME280_temperature;BME280_humidity;BME280_pressure;Samples;Min_cycle;Max_cycle;Signal;HPM_P1;HPM_P2
2022/06/30 00:01:41;;;;;;;4.18;1.00;;;17.00;69.50;;;;;;5028036;28;20097;-74
2022/06/30 00:04:07;;;;;;;7.80;2.60;;;16.90;69.50;;;;;;5031179;28;20029;-73
2022/06/30 00:06:33;;;;;;;4.40;1.20;;;16.90;70.10;;;;;;5028717;28;20507;-74
2022/06/30 00:08:59;;;;;;;5.05;1.23;;;16.90;70.00;;;;;;5029247;28;20040;-73
2022/06/30 00:11:25;;;;;;;5.55;1.00;;;16.90;70.00;;;;;;5027046;28;20029;-73
2022/06/30 00:13:50;;;;;;;4.85;0.93;;;16.90;69.90;;;;;;5027413;28;20079;-73
2022/06/30 00:16:16;;;;;;;5.03;1.08;;;16.90;69.90;;;;;;5014868;28;20554;-73
2022/06/30 00:18:42;;;;;;;3.90;0.93;;;16.80;69.80;;;;;;5031987;28;20059;-73
2022/06/30 00:21:09;;;;;;;5.05;1.05;;;16.80;69.80;;;;;;5028677;28;20026;-74
2022/06/30 00:23:35;;;;;;;5.53;1.20;;;16.70;69.90;;;;;;5024752;28;20669;-73
2022/06/30 00:26:01;;;;;;;7.30;1.00;;;16.70;70.00;;;;;;5029312;28;20029;-74
2022/06/30 00:28:27;;;;;;;4.43;0.90;;;16.70;70.00;;;;;;5030603;28;20455;-73
2022/06/30 00:30:53;;;;;;;6.32;1.00;;;16.70;70.00;;;;;;5015605;28;20104;-73
2022/06/30 00:33:19;;;;;;;5.35;1.20;;;16.60;69.80;;;;;;5030647;28;20040;-73
2022/06/30 00:35:46;;;;;;;3.60;0.93;;;16.60;69.90;;;;;;5021584;28;20034;-73
2022/06/30 00:38:12;;;;;;;4.43;0.90;;;16.60;70.10;;;;;;5027705;28;20021;-73
2022/06/30 00:40:39;;;;;;;3.55;0.90;;;16.50;70.20;;;;;;5033129;28;20055;-73
2022/06/30 00:43:05;;;;;;;3.22;1.02;;;16.50;70.30;;;;;;5028371;28;20408;-73
2022/06/30 00:45:32;;;;;;;4.03;0.90;;;16.50;70.30;;;;;;5030859;28;20021;-73
2022/06/30 00:47:59;;;;;;;4.00;1.13;;;16.50;70.30;;;;;;5017310;28;20049;-73
2022/06/30 00:50:26;;;;;;;4.38;1.00;;;16.50;70.50;;;;;;5019176;28;20030;-74
2022/06/30 00:52:52;;;;;;;6.35;1.17;;;16.50;70.60;;;;;;5025364;28;20438;-73
2022/06/30 00:55:19;;;;;;;3.95;1.05;;;16.50;70.60;;;;;;5028348;28;20033;-73
2022/06/30 00:57:45;;;;;;;4.78;1.10;;;16.50;70.70;;;;;;5024714;28;20386;-73
2022/06/30 01:00:14;;;;;;;6.78;1.15;;;16.50;70.80;;;;;;5022018;28;20040;-73
2022/06/30 01:02:40;;;;;;;4.07;1.13;;;16.50;70.80;;;;;;5024454;28;20037;-73
2022/06/30 01:05:07;;;;;;;4.47;1.20;;;16.50;70.70;;;;;;5027462;28;20030;-73
2022/06/30 01:07:34;;;;;;;3.53;1.00;;;16.50;70.70;;;;;;5028981;28;20022;-73
2022/06/30 01:12:47;;;;;;;3.95;1.00;;;16.40;70.90;;;;;;5029495;28;20052;-73
2022/06/30 01:15:17;;;;;;;4.10;1.10;;;16.40;71.20;;;;;;5026961;28;20033;-73
2022/06/30 01:17:44;;;;;;;6.72;1.05;;;16.30;71.40;;;;;;5018179;28;20033;-74
2022/06/30 01:20:10;;;;;;;6.10;1.10;;;16.30;71.40;;;;;;5026034;28;20053;-73
2022/06/30 01:22:37;;;;;;;5.30;1.30;;;16.30;71.00;;;;;;5028418;28;20033;-73
2022/06/30 01:25:04;;;;;;;8.13;3.88;;;16.30;71.00;;;;;;5014062;28;20026;-73
2022/06/30 01:27:30;;;;;;;5.47;1.50;;;16.30;71.20;;;;;;5025143;28;20067;-73
2022/06/30 01:29:57;;;;;;;5.97;1.20;;;16.20;71.50;;;;;;5029196;28;20029;-73
2022/06/30 01:32:23;;;;;;;4.40;1.10;;;16.20;71.70;;;;;;5022086;28;20139;-73
2022/06/30 01:34:49;;;;;;;4.93;1.05;;;16.20;71.90;;;;;;5015363;28;20101;-73
2022/06/30 01:37:15;;;;;;;6.82;1.10;;;16.10;72.20;;;;;;5020597;28;20655;-73
2022/06/30 01:39:41;;;;;;;5.07;1.20;;;16.10;72.30;;;;;;5038629;28;20384;-73
2022/06/30 01:42:07;;;;;;;5.47;1.30;;;16.00;72.70;;;;;;5023987;28;20061;-73
2022/06/30 01:44:33;;;;;;;3.97;1.15;;;16.00;72.90;;;;;;5025571;28;20061;-73
2022/06/30 01:46:58;;;;;;;6.30;1.20;;;16.00;73.00;;;;;;5028930;28;20026;-74
2022/06/30 01:49:24;;;;;;;7.05;1.30;;;16.00;73.20;;;;;;5028242;28;20025;-73
2022/06/30 01:51:49;;;;;;;3.38;1.08;;;16.00;73.20;;;;;;5042093;28;20037;-73
2022/06/30 01:54:15;;;;;;;6.05;1.08;;;16.10;73.40;;;;;;5018505;28;20033;-73
2022/06/30 01:56:41;;;;;;;5.38;1.30;;;16.00;73.50;;;;;;5021844;28;20026;-73
2022/06/30 01:59:07;;;;;;;6.28;1.60;;;16.00;73.80;;;;;;5019466;28;20543;-74
2022/06/30 02:01:33;;;;;;;6.20;1.60;;;16.00;73.90;;;;;;5023195;28;20052;-74
2022/06/30 02:06:43;;;;;;;7.22;1.35;;;16.00;73.80;;;;;;5028251;28;20040;-74
2022/06/30 02:09:10;;;;;;;8.13;1.33;;;16.00;73.80;;;;;;5032562;28;20049;-73
2022/06/30 02:11:35;;;;;;;6.63;1.30;;;16.00;73.50;;;;;;5023810;28;20030;-74
2022/06/30 02:14:01;;;;;;;5.93;1.17;;;16.00;73.50;;;;;;5025705;28;20033;-73
2022/06/30 02:16:27;;;;;;;3.42;1.10;;;16.00;73.50;;;;;;5021715;28;20057;-73
2022/06/30 02:18:52;;;;;;;6.40;1.23;;;16.00;73.40;;;;;;5026472;28;20058;-73
2022/06/30 02:21:18;;;;;;;5.15;1.17;;;15.90;73.50;;;;;;5028434;28;20053;-73
2022/06/30 02:23:45;;;;;;;5.10;1.20;;;15.90;73.60;;;;;;5023629;28;20034;-73
2022/06/30 02:26:11;;;;;;;6.18;1.20;;;15.90;73.70;;;;;;5025711;28;20032;-73
2022/06/30 02:28:36;;;;;;;4.18;0.95;;;15.90;73.80;;;;;;5023829;28;20033;-73
2022/06/30 02:31:02;;;;;;;5.35;1.15;;;15.90;73.90;;;;;;5019203;28;20041;-73
2022/06/30 02:33:28;;;;;;;6.40;1.23;;;15.80;73.80;;;;;;5022536;28;20045;-73
2022/06/30 02:35:53;;;;;;;3.92;1.10;;;15.80;73.90;;;;;;5025248;28;20022;-73
2022/06/30 02:38:19;;;;;;;6.25;1.08;;;15.80;73.90;;;;;;5028396;28;20041;-73
2022/06/30 02:40:45;;;;;;;4.60;1.23;;;15.80;73.90;;;;;;5029050;28;20500;-73
2022/06/30 02:43:10;;;;;;;5.50;1.30;;;15.80;73.90;;;;;;5027549;28;20116;-74
2022/06/30 02:45:36;;;;;;;3.85;1.10;;;15.70;74.00;;;;;;5028920;28;20068;-73
2022/06/30 02:48:02;;;;;;;5.03;1.20;;;15.70;74.10;;;;;;5027920;28;20037;-73
2022/06/30 02:50:29;;;;;;;5.13;1.10;;;15.70;74.30;;;;;;5026118;28;20511;-73
2022/06/30 02:52:55;;;;;;;4.38;1.20;;;15.60;74.20;;;;;;5026036;28;20162;-73
2022/06/30 02:55:21;;;;;;;5.28;1.17;;;15.60;74.20;;;;;;5048599;28;20021;-73
2022/06/30 02:57:47;;;;;;;3.40;1.10;;;15.60;74.20;;;;;;5018238;28;20025;-73
2022/06/30 03:00:13;;;;;;;4.30;1.02;;;15.60;74.20;;;;;;5026091;28;20037;-73
2022/06/30 03:02:39;;;;;;;6.50;1.27;;;15.60;74.00;;;;;;5027084;28;20037;-74
2022/06/30 03:05:06;;;;;;;4.60;1.20;;;15.50;73.70;;;;;;5025319;28;20036;-73
2022/06/30 03:07:32;;;;;;;5.95;1.42;;;15.50;73.70;;;;;;5026100;28;20025;-74
2022/06/30 03:09:58;;;;;;;5.07;1.05;;;15.50;74.70;;;;;;5038711;28;20028;-74
2022/06/30 03:12:24;;;;;;;3.20;1.20;;;15.50;73.70;;;;;;5021474;28;20032;-74
2022/06/30 03:14:50;;;;;;;4.50;1.08;;;15.50;73.60;;;;;;5026709;28;20041;-74
2022/06/30 03:17:16;;;;;;;3.95;1.15;;;15.50;73.60;;;;;;5023976;28;20026;-73
2022/06/30 03:19:41;;;;;;;4.65;1.20;;;15.50;73.50;;;;;;5016615;28;20061;-73
2022/06/30 03:22:07;;;;;;;7.43;1.35;;;15.40;73.60;;;;;;5023534;28;20560;-73
2022/06/30 03:24:33;;;;;;;5.40;1.20;;;15.40;73.60;;;;;;5027490;28;20044;-73
2022/06/30 03:26:58;;;;;;;5.13;1.30;;;15.40;73.80;;;;;;5020759;28;20084;-74
2022/06/30 03:29:24;;;;;;;6.28;1.10;;;15.40;73.90;;;;;;5024686;28;22165;-73
2022/06/30 03:31:49;;;;;;;5.80;1.10;;;15.30;74.00;;;;;;5026771;28;20473;-74
2022/06/30 03:34:15;;;;;;;6.22;1.20;;;15.30;74.00;;;;;;5027021;28;20035;-74
2022/06/30 03:36:41;;;;;;;5.28;1.10;;;15.40;74.00;;;;;;5028282;28;20029;-74
2022/06/30 03:39:07;;;;;;;4.15;1.10;;;15.30;73.90;;;;;;5028073;28;20480;-73
2022/06/30 03:41:50;;;;;;;4.22;1.15;;;15.30;73.90;;;;;;5027072;28;20088;-73
2022/06/30 03:44:16;;;;;;;4.25;1.38;;;15.30;73.90;;;;;;5023429;28;20093;-73
2022/06/30 03:46:42;;;;;;;4.15;1.10;;;15.30;74.00;;;;;;5023677;28;20403;-74
2022/06/30 03:49:08;;;;;;;4.80;1.40;;;15.30;74.10;;;;;;5032716;28;20049;-74
2022/06/30 03:51:34;;;;;;;6.30;1.30;;;15.30;74.10;;;;;;5011273;28;20032;-74
2022/06/30 03:54:00;;;;;;;5.20;1.23;;;15.30;74.10;;;;;;5025153;28;20041;-74
2022/06/30 03:56:25;;;;;;;3.83;1.08;;;15.20;74.20;;;;;;5022874;28;20057;-74
2022/06/30 03:58:58;;;;;;;4.10;1.10;;;15.20;74.20;;;;;;5024772;28;20033;-74
2022/06/30 04:01:24;;;;;;;6.20;1.20;;;15.20;74.10;;;;;;5034954;28;20035;-74
2022/06/30 04:03:50;;;;;;;4.93;1.20;;;15.20;73.80;;;;;;5028412;28;20108;-74
2022/06/30 04:06:16;;;;;;;6.78;1.10;;;15.10;73.80;;;;;;5024890;28;20116;-74
2022/06/30 04:08:41;;;;;;;5.55;1.15;;;15.10;73.80;;;;;;5026660;28;20036;-74
2022/06/30 04:11:08;;;;;;;4.82;1.20;;;15.00;74.00;;;;;;5025104;28;20093;-73
2022/06/30 04:13:33;;;;;;;4.72;1.20;;;15.00;74.20;;;;;;5026199;28;20041;-74
2022/06/30 04:15:59;;;;;;;3.17;1.10;;;15.00;74.30;;;;;;5025844;28;20164;-73
2022/06/30 04:18:25;;;;;;;4.88;1.20;;;15.00;74.30;;;;;;5014506;28;21506;-74
2022/06/30 04:20:50;;;;;;;4.38;1.20;;;14.90;74.00;;;;;;5020199;28;20068;-74
2022/06/30 04:23:16;;;;;;;5.93;1.40;;;14.90;73.90;;;;;;5017358;28;20026;-74
2022/06/30 04:25:42;;;;;;;4.72;1.40;;;14.90;73.90;;;;;;5026170;28;20407;-74
2022/06/30 04:28:07;;;;;;;4.95;1.65;;;14.90;74.30;;;;;;5031334;28;20025;-73
2022/06/30 04:33:17;;;;;;;5.13;1.50;;;14.80;74.80;;;;;;5024556;28;20120;-76
2022/06/30 04:35:43;;;;;;;6.18;1.30;;;14.80;74.90;;;;;;5021700;28;20117;-73
2022/06/30 04:38:09;;;;;;;7.53;1.48;;;14.80;74.90;;;;;;5025634;28;20022;-73
